createdAt,value
2018-03-08T00:00:43.048Z,96685.63
2018-03-08T00:03:11.367Z,96707.66
2018-03-08T00:05:39.637Z,96701.73
2018-03-08T00:08:08.663Z,96710.96
2018-03-08T00:10:36.943Z,96712.09
2018-03-08T00:13:05.967Z,96706.34
2018-03-08T00:15:34.242Z,96707.91
2018-03-08T00:18:02.549Z,96714.11
2018-03-08T00:20:30.833Z,96712.45
2018-03-08T00:22:59.128Z,96713.20
2018-03-08T00:25:27.384Z,96714.17
2018-03-08T00:27:55.650Z,96714.75
2018-03-08T00:30:23.912Z,96715.31
2018-03-08T00:32:52.180Z,96714.06
2018-03-08T00:35:20.442Z,96716.56
2018-03-08T00:37:49.457Z,96720.02
2018-03-08T00:40:18.516Z,96717.53
2018-03-08T00:42:46.789Z,96727.16
2018-03-08T00:45:15.131Z,96726.62
2018-03-08T00:47:43.572Z,96728.92
2018-03-08T00:50:12.013Z,96735.73
2018-03-08T00:52:40.399Z,96741.59
2018-03-08T00:55:09.461Z,96748.50
2018-03-08T00:57:37.729Z,96736.09
2018-03-08T01:00:05.997Z,96737.67
2018-03-08T01:02:35.012Z,96732.94
2018-03-08T01:05:04.055Z,96731.55
2018-03-08T01:07:32.364Z,96733.12
2018-03-08T01:10:00.670Z,96731.84
2018-03-08T01:12:29.712Z,96729.80
2018-03-08T01:14:58.028Z,96729.05
2018-03-08T01:17:27.040Z,96729.20
2018-03-08T01:19:55.316Z,96727.20
2018-03-08T01:22:23.580Z,96729.17
2018-03-08T01:24:52.621Z,96730.03
2018-03-08T01:27:20.899Z,96737.48
2018-03-08T01:29:49.174Z,96739.76
2018-03-08T01:32:17.477Z,96736.55
2018-03-08T01:34:45.792Z,96736.11
2018-03-08T01:37:14.211Z,96742.05
2018-03-08T01:42:19.350Z,96745.10
2018-03-08T01:44:47.639Z,96743.70
2018-03-08T01:47:16.099Z,96742.39
2018-03-08T01:49:44.492Z,96733.24
2018-03-08T01:52:13.792Z,96735.94
2018-03-08T01:54:43.062Z,96743.49
2018-03-08T01:57:11.457Z,96745.59
2018-03-08T01:59:39.772Z,96741.23
2018-03-08T02:02:08.046Z,96738.02
2018-03-08T02:04:36.357Z,96741.11
2018-03-08T02:07:04.634Z,96733.47
2018-03-08T02:09:32.930Z,96742.55
2018-03-08T02:12:01.230Z,96747.75
2018-03-08T02:14:29.523Z,96747.46
2018-03-08T02:16:58.564Z,96751.37
2018-03-08T02:19:26.825Z,96749.87
2018-03-08T02:21:55.856Z,96751.19
2018-03-08T02:24:24.268Z,96750.41
2018-03-08T02:26:52.537Z,96748.00
2018-03-08T02:29:20.830Z,96758.72
2018-03-08T02:31:49.115Z,96765.73
2018-03-08T02:34:17.444Z,96763.52
2018-03-08T02:36:46.575Z,96760.90
2018-03-08T02:39:14.973Z,96771.20
2018-03-08T02:41:43.302Z,96765.88
2018-03-08T02:44:11.609Z,96766.00
2018-03-08T02:46:40.708Z,96768.59
2018-03-08T02:49:09.019Z,96770.52
2018-03-08T02:51:37.369Z,96770.48
2018-03-08T02:54:05.640Z,96768.77
2018-03-08T02:56:34.780Z,96781.50
2018-03-08T02:59:03.056Z,96787.23
2018-03-08T03:01:31.363Z,96795.80
2018-03-08T03:04:00.415Z,96793.41
2018-03-08T03:06:28.701Z,96791.12
2018-03-08T03:08:56.976Z,96792.89
2018-03-08T03:11:25.246Z,96786.01
2018-03-08T03:13:53.524Z,96789.25
2018-03-08T03:16:21.782Z,96793.34
2018-03-08T03:18:50.818Z,96788.58
2018-03-08T03:21:19.076Z,96792.52
2018-03-08T03:23:48.134Z,96803.23
2018-03-08T03:26:16.533Z,96803.61
2018-03-08T03:28:44.927Z,96801.54
2018-03-08T03:31:13.357Z,96816.09
2018-03-08T03:33:42.547Z,96812.44
2018-03-08T03:36:10.839Z,96814.24
2018-03-08T03:38:39.173Z,96811.66
2018-03-08T03:41:07.429Z,96815.92
2018-03-08T03:43:36.475Z,96815.58
2018-03-08T03:46:04.729Z,96816.68
2018-03-08T03:48:33.020Z,96814.05
2018-03-08T03:51:02.140Z,96812.51
2018-03-08T03:53:31.220Z,96814.53
2018-03-08T03:56:00.286Z,96816.05
2018-03-08T03:58:28.554Z,96818.22
2018-03-08T04:00:56.828Z,96817.83
2018-03-08T04:03:25.869Z,96819.54
2018-03-08T04:05:54.177Z,96824.48
2018-03-08T04:08:23.160Z,96826.78
2018-03-08T04:10:51.412Z,96834.02
2018-03-08T04:13:20.464Z,96830.72
2018-03-08T04:15:48.926Z,96831.48
2018-03-08T04:18:17.963Z,96837.34
2018-03-08T04:20:46.214Z,96840.37
2018-03-08T04:23:15.272Z,96833.80
2018-03-08T04:25:43.670Z,96835.02
2018-03-08T04:28:12.008Z,96830.13
2018-03-08T04:30:40.280Z,96833.39
2018-03-08T04:33:09.298Z,96821.52
2018-03-08T04:35:38.356Z,96828.24
2018-03-08T04:38:06.612Z,96821.46
2018-03-08T04:40:34.875Z,96828.94
2018-03-08T04:43:03.916Z,96828.59
2018-03-08T04:45:32.221Z,96821.15
2018-03-08T04:48:01.248Z,96836.88
2018-03-08T04:50:29.525Z,96837.78
2018-03-08T04:52:57.771Z,96835.89
2018-03-08T04:55:26.799Z,96837.63
2018-03-08T04:57:55.055Z,96839.74
2018-03-08T05:00:23.308Z,96842.43
2018-03-08T05:02:51.568Z,96845.50
2018-03-08T05:05:19.857Z,96841.31
2018-03-08T05:07:48.131Z,96846.78
2018-03-08T05:10:17.197Z,96842.02
2018-03-08T05:12:45.508Z,96842.86
2018-03-08T05:15:14.612Z,96841.36
2018-03-08T05:17:42.918Z,96843.75
2018-03-08T05:20:11.215Z,96849.61
2018-03-08T05:22:39.488Z,96849.67
2018-03-08T05:25:08.516Z,96843.97
2018-03-08T05:27:36.786Z,96840.17
2018-03-08T05:30:05.827Z,96848.21
2018-03-08T05:32:34.080Z,96851.69
2018-03-08T05:35:03.168Z,96852.16
2018-03-08T05:37:31.481Z,96858.94
2018-03-08T05:39:59.761Z,96863.52
2018-03-08T05:42:28.019Z,96852.90
2018-03-08T05:44:56.280Z,96860.22
2018-03-08T05:47:24.539Z,96852.73
2018-03-08T05:56:57.443Z,96878.20
2018-03-08T05:59:33.627Z,96876.29
2018-03-08T06:02:06.208Z,96886.09
2018-03-08T06:04:35.398Z,96872.38
2018-03-08T06:07:03.701Z,96874.16
2018-03-08T06:09:31.997Z,96873.59
2018-03-08T06:12:01.062Z,96877.92
2018-03-08T06:14:30.362Z,96881.77
2018-03-08T06:16:58.640Z,96879.31
2018-03-08T06:19:27.756Z,96881.66
2018-03-08T06:21:56.015Z,96882.75
2018-03-08T06:24:24.281Z,96882.05
2018-03-08T06:26:52.580Z,96881.49
2018-03-08T06:29:20.824Z,96885.47
2018-03-08T06:31:49.100Z,96881.12
2018-03-08T06:34:17.380Z,96884.55
2018-03-08T06:36:45.715Z,96880.45
2018-03-08T06:39:14.932Z,96887.23
2018-03-08T06:41:43.479Z,96902.43
2018-03-08T06:44:11.929Z,96908.67
2018-03-08T06:46:40.219Z,96915.69
2018-03-08T06:49:09.253Z,96915.97
2018-03-08T06:51:37.534Z,96900.23
2018-03-08T06:54:05.798Z,96885.15
2018-03-08T06:56:34.079Z,96883.62
2018-03-08T06:59:03.479Z,96879.67
2018-03-08T07:01:31.877Z,96887.84
2018-03-08T07:04:00.755Z,96892.67
2018-03-08T07:06:29.025Z,96885.78
2018-03-08T07:08:57.503Z,96886.86
2018-03-08T07:11:26.400Z,96899.33
2018-03-08T07:13:54.677Z,96898.59
2018-03-08T07:16:23.010Z,96898.11
2018-03-08T07:18:51.346Z,96894.33
2018-03-08T07:21:19.708Z,96899.22
2018-03-08T07:23:47.993Z,96901.26
2018-03-08T07:26:16.776Z,96904.58
2018-03-08T07:28:46.008Z,96899.30
2018-03-08T07:31:15.326Z,96904.95
2018-03-08T07:33:44.404Z,96906.44
2018-03-08T07:36:13.358Z,96894.09
2018-03-08T07:38:42.787Z,96896.84
2018-03-08T07:41:12.242Z,96901.13
2018-03-08T07:43:40.800Z,96905.33
2018-03-08T07:46:09.468Z,96909.98
2018-03-08T07:48:37.973Z,96901.87
2018-03-08T07:51:07.563Z,96912.66
2018-03-08T07:53:36.574Z,96920.38
2018-03-08T07:56:05.001Z,96908.28
2018-03-08T07:58:34.167Z,96910.92
2018-03-08T08:01:03.862Z,96917.00
2018-03-08T08:03:32.401Z,96919.09
2018-03-08T08:06:19.304Z,96916.28
2018-03-08T08:09:05.520Z,96914.95
2018-03-08T08:11:34.367Z,96919.27
2018-03-08T08:14:03.771Z,96921.13
2018-03-08T08:16:32.365Z,96928.19
2018-03-08T08:19:01.838Z,96931.03
2018-03-08T08:21:31.037Z,96925.29
2018-03-08T08:23:59.334Z,96931.75
2018-03-08T08:26:27.603Z,96924.67
2018-03-08T08:28:55.882Z,96923.16
2018-03-08T08:31:24.921Z,96915.77
2018-03-08T08:33:54.084Z,96924.59
2018-03-08T08:36:22.350Z,96918.99
2018-03-08T08:38:50.630Z,96915.82
2018-03-08T08:41:18.893Z,96917.28
2018-03-08T08:43:47.245Z,96929.01
2018-03-08T08:46:15.561Z,96920.29
2018-03-08T08:48:44.010Z,96921.42
2018-03-08T08:51:12.372Z,96919.98
2018-03-08T08:53:40.643Z,96918.56
2018-03-08T08:56:08.917Z,96917.00
2018-03-08T08:58:37.949Z,96922.84
2018-03-08T09:01:06.225Z,96924.34
2018-03-08T09:03:35.257Z,96920.31
2018-03-08T09:06:04.280Z,96917.36
2018-03-08T09:08:32.561Z,96922.66
2018-03-08T09:11:00.853Z,96914.86
2018-03-08T09:13:29.109Z,96921.36
2018-03-08T09:15:58.163Z,96931.38
2018-03-08T09:18:26.413Z,96918.63
2018-03-08T09:20:54.904Z,96922.23
2018-03-08T09:23:23.161Z,96928.47
2018-03-08T09:25:51.428Z,96933.94
2018-03-08T09:28:19.693Z,96926.74
2018-03-08T09:30:47.974Z,96930.23
2018-03-08T09:33:16.295Z,96937.20
2018-03-08T09:35:44.677Z,96935.11
2018-03-08T09:38:12.960Z,96935.08
2018-03-08T09:40:43.760Z,96931.89
2018-03-08T09:43:12.123Z,96924.66
2018-03-08T09:45:40.402Z,96920.63
2018-03-08T09:48:08.644Z,96926.19
2018-03-08T09:50:36.921Z,96926.39
2018-03-08T09:53:05.940Z,96918.88
2018-03-08T09:55:34.223Z,96928.19
2018-03-08T09:58:02.491Z,96928.99
2018-03-08T10:00:31.532Z,96918.14
2018-03-08T10:02:59.814Z,96916.06
2018-03-08T10:05:28.088Z,96915.41
2018-03-08T10:07:57.105Z,96915.67
2018-03-08T10:10:25.371Z,96909.83
2018-03-08T10:12:53.767Z,96907.77
2018-03-08T10:15:21.964Z,96907.47
2018-03-08T10:17:51.048Z,96914.41
2018-03-08T10:20:19.361Z,96913.20
2018-03-08T10:22:48.504Z,96910.09
2018-03-08T10:25:17.635Z,96904.34
2018-03-08T10:27:47.005Z,96900.09
2018-03-08T10:30:15.717Z,96908.52
2018-03-08T10:32:44.306Z,96903.02
2018-03-08T10:35:14.041Z,96900.45
2018-03-08T10:37:42.452Z,96892.09
2018-03-08T10:40:10.802Z,96894.38
2018-03-08T10:42:44.941Z,96894.23
2018-03-08T10:45:08.444Z,96892.08
2018-03-08T10:47:36.752Z,96886.17
2018-03-08T10:50:05.067Z,96881.16
2018-03-08T10:52:33.580Z,96884.02
2018-03-08T10:55:02.488Z,96873.84
2018-03-08T10:57:31.774Z,96875.22
2018-03-08T11:00:03.170Z,96871.58
2018-03-08T11:02:35.236Z,96874.73
2018-03-08T11:05:04.605Z,96872.55
2018-03-08T11:07:33.590Z,96863.22
2018-03-08T11:10:02.291Z,96852.64
2018-03-08T11:12:30.617Z,96841.18
2018-03-08T11:14:59.386Z,96831.44
2018-03-08T11:17:27.973Z,96831.88
2018-03-08T11:19:56.284Z,96840.22
2018-03-08T11:22:25.392Z,96838.89
2018-03-08T11:24:53.743Z,96835.31
2018-03-08T11:27:22.280Z,96837.34
2018-03-08T11:29:50.717Z,96861.95
2018-03-08T11:32:20.029Z,96837.70
2018-03-08T11:34:49.091Z,96833.91
2018-03-08T11:37:17.572Z,96822.91
2018-03-08T11:39:46.354Z,96830.23
2018-03-08T11:42:15.934Z,96822.17
2018-03-08T11:44:44.482Z,96832.02
2018-03-08T11:47:13.132Z,96822.29
2018-03-08T11:49:41.911Z,96814.80
2018-03-08T11:52:10.183Z,96815.70
2018-03-08T11:54:38.578Z,96813.84
2018-03-08T11:57:07.421Z,96810.23
2018-03-08T11:59:36.436Z,96816.73
2018-03-08T12:02:05.478Z,96810.52
2018-03-08T12:04:33.731Z,96814.56
2018-03-08T12:07:03.117Z,96807.63
2018-03-08T12:09:31.390Z,96791.52
2018-03-08T12:11:59.887Z,96792.42
2018-03-08T12:14:28.334Z,96790.16
2018-03-08T12:16:56.945Z,96789.17
2018-03-08T12:19:25.681Z,96775.97
2018-03-08T12:21:54.776Z,96769.56
2018-03-08T12:24:23.201Z,96765.76
2018-03-08T12:26:51.458Z,96771.33
2018-03-08T12:29:20.743Z,96759.06
2018-03-08T12:31:49.082Z,96759.41
2018-03-08T12:34:17.593Z,96756.07
2018-03-08T12:36:46.525Z,96755.59
2018-03-08T12:39:14.985Z,96741.77
2018-03-08T12:41:44.313Z,96742.41
2018-03-08T12:44:13.404Z,96737.52
2018-03-08T12:46:41.689Z,96729.41
2018-03-08T12:49:14.827Z,96718.48
2018-03-08T12:51:43.264Z,96714.87
2018-03-08T12:54:11.533Z,96714.42
2018-03-08T12:56:39.799Z,96710.02
2018-03-08T12:59:08.096Z,96707.56
2018-03-08T13:01:36.410Z,96704.81
2018-03-08T13:04:04.696Z,96706.38
2018-03-08T13:06:32.997Z,96705.39
2018-03-08T13:09:01.268Z,96698.48
2018-03-08T13:11:29.525Z,96696.56
2018-03-08T13:13:58.584Z,96696.22
2018-03-08T13:16:26.845Z,96692.70
2018-03-08T13:18:55.117Z,96693.17
2018-03-08T13:21:23.396Z,96686.05
2018-03-08T13:23:52.449Z,96690.91
2018-03-08T13:26:20.706Z,96683.91
2018-03-08T13:28:48.964Z,96681.32
2018-03-08T13:31:20.675Z,96681.10
2018-03-08T13:33:48.970Z,96684.55
2018-03-08T13:36:17.293Z,96688.66
2018-03-08T13:38:45.563Z,96683.28
2018-03-08T13:41:13.861Z,96670.61
2018-03-08T13:43:42.152Z,96665.69
2018-03-08T13:46:10.405Z,96667.18
2018-03-08T13:48:39.564Z,96667.00
2018-03-08T13:51:07.840Z,96665.63
2018-03-08T13:53:36.106Z,96659.66
2018-03-08T13:56:04.393Z,96655.94
2018-03-08T13:58:32.653Z,96653.89
2018-03-08T14:01:01.792Z,96653.80
2018-03-08T14:03:30.050Z,96650.38
2018-03-08T14:05:59.110Z,96645.66
2018-03-08T14:08:27.401Z,96643.12
2018-03-08T14:10:56.441Z,96635.78
2018-03-08T14:13:24.692Z,96635.08
2018-03-08T14:15:53.014Z,96630.38
2018-03-08T14:18:21.273Z,96629.77
2018-03-08T14:20:49.888Z,96623.47
2018-03-08T14:23:18.176Z,96622.13
2018-03-08T14:25:46.469Z,96619.18
2018-03-08T14:28:15.210Z,96627.38
2018-03-08T14:30:43.575Z,96615.97
2018-03-08T14:33:14.745Z,96616.18
2018-03-08T14:35:44.772Z,96608.00
2018-03-08T14:38:13.448Z,96605.40
2018-03-08T14:40:42.005Z,96605.20
2018-03-08T14:43:10.624Z,96600.92
2018-03-08T14:45:39.731Z,96599.08
2018-03-08T14:48:08.022Z,96595.99
2018-03-08T14:50:36.766Z,96590.22
2018-03-08T14:53:06.029Z,96589.59
2018-03-08T14:55:34.830Z,96589.98
2018-03-08T14:58:03.613Z,96588.78
2018-03-08T15:00:32.332Z,96590.86
2018-03-08T15:03:00.605Z,96595.45
2018-03-08T15:05:29.089Z,96590.66
2018-03-08T15:07:57.664Z,96596.58
2018-03-08T15:10:27.617Z,96591.30
2018-03-08T15:12:56.352Z,96591.15
2018-03-08T15:15:25.156Z,96576.48
2018-03-08T15:17:53.978Z,96577.27
2018-03-08T15:20:22.234Z,96580.31
2018-03-08T15:22:50.530Z,96579.69
2018-03-08T15:25:18.787Z,96586.95
2018-03-08T15:27:47.071Z,96581.00
2018-03-08T15:30:15.437Z,96578.11
2018-03-08T15:32:44.511Z,96581.55
2018-03-08T15:35:13.603Z,96578.01
2018-03-08T15:37:41.943Z,96579.39
2018-03-08T15:40:10.979Z,96579.66
2018-03-08T15:42:39.265Z,96590.71
2018-03-08T15:45:07.528Z,96576.30
2018-03-08T15:47:36.624Z,96586.41
2018-03-08T15:50:04.884Z,96589.41
2018-03-08T15:52:33.159Z,96587.01
2018-03-08T15:55:01.433Z,96588.97
2018-03-08T15:57:29.701Z,96590.57
2018-03-08T15:59:58.737Z,96587.48
2018-03-08T16:02:27.004Z,96586.59
2018-03-08T16:04:56.410Z,96589.45
2018-03-08T16:10:37.461Z,96592.38
2018-03-08T16:13:05.719Z,96589.38
2018-03-08T16:15:34.781Z,96592.88
2018-03-08T16:18:03.136Z,96591.08
2018-03-08T16:20:31.474Z,96596.56
2018-03-08T16:22:59.765Z,96596.79
2018-03-08T16:25:28.029Z,96587.20
2018-03-08T16:27:56.312Z,96592.91
2018-03-08T16:30:24.573Z,96587.69
2018-03-08T16:32:52.854Z,96586.88
2018-03-08T16:35:21.128Z,96586.88
2018-03-08T16:37:49.393Z,96584.46
2018-03-08T16:40:17.689Z,96586.41
2018-03-08T16:42:46.191Z,96593.83
2018-03-08T16:45:15.341Z,96587.03
2018-03-08T16:47:44.461Z,96584.38
2018-03-08T16:50:12.909Z,96593.17
2018-03-08T16:52:41.851Z,96579.43
2018-03-08T16:55:10.164Z,96597.70
2018-03-08T16:57:38.419Z,96584.17
2018-03-08T17:00:07.469Z,96582.62
2018-03-08T17:02:35.760Z,96577.98
2018-03-08T17:05:04.091Z,96579.63
2018-03-08T17:07:32.411Z,96583.27
2018-03-08T17:10:01.424Z,96578.89
2018-03-08T17:12:29.678Z,96587.80
2018-03-08T17:14:58.033Z,96582.07
2018-03-08T17:17:27.075Z,96580.90
2018-03-08T17:19:56.135Z,96576.67
2018-03-08T17:22:24.424Z,96575.38
2018-03-08T17:24:52.834Z,96575.11
2018-03-08T17:27:21.093Z,96571.55
2018-03-08T17:29:49.394Z,96576.76
2018-03-08T17:32:17.704Z,96585.77
2018-03-08T17:34:46.055Z,96585.80
2018-03-08T17:37:14.468Z,96595.08
2018-03-08T17:39:42.821Z,96594.67
2018-03-08T17:42:11.118Z,96592.80
2018-03-08T17:44:39.429Z,96610.31
2018-03-08T17:47:09.110Z,96604.84
2018-03-08T17:49:37.410Z,96611.43
2018-03-08T17:52:06.463Z,96616.91
2018-03-08T17:54:34.906Z,96626.75
2018-03-08T17:57:03.151Z,96621.89
2018-03-08T17:59:31.443Z,96626.47
2018-03-08T18:01:59.708Z,96628.08
2018-03-08T18:04:27.976Z,96633.25
2018-03-08T18:06:57.013Z,96640.31
2018-03-08T18:09:25.265Z,96646.64
2018-03-08T18:11:54.354Z,96651.91
2018-03-08T18:14:22.572Z,96652.89
2018-03-08T18:16:50.831Z,96650.70
2018-03-08T18:19:19.093Z,96649.97
2018-03-08T18:21:47.408Z,96645.88
2018-03-08T18:24:15.711Z,96651.66
2018-03-08T18:26:44.799Z,96652.00
2018-03-08T18:29:13.784Z,96655.86
2018-03-08T18:31:42.165Z,96655.23
2018-03-08T18:34:10.436Z,96660.66
2018-03-08T18:36:38.776Z,96665.80
2018-03-08T18:39:07.034Z,96671.02
2018-03-08T18:41:35.348Z,96675.88
2018-03-08T18:44:03.595Z,96674.84
2018-03-08T18:46:31.876Z,96676.72
2018-03-08T18:49:00.129Z,96679.33
2018-03-08T18:51:28.440Z,96680.30
2018-03-08T18:53:56.855Z,96674.62
2018-03-08T18:56:25.133Z,96681.02
2018-03-08T18:58:53.400Z,96678.72
2018-03-08T19:01:21.682Z,96690.05
2018-03-08T19:03:50.008Z,96688.64
2018-03-08T19:06:18.309Z,96692.57
2018-03-08T19:08:46.603Z,96701.53
2018-03-08T19:11:14.909Z,96703.48
2018-03-08T19:13:43.949Z,96698.95
2018-03-08T19:16:13.383Z,96703.63
2018-03-08T19:18:41.723Z,96704.09
2018-03-08T19:21:10.009Z,96708.53
2018-03-08T19:23:39.047Z,96704.71
2018-03-08T19:26:07.354Z,96701.84
2018-03-08T19:28:37.261Z,96699.97
2018-03-08T19:31:05.519Z,96704.10
2018-03-08T19:33:33.843Z,96706.20
2018-03-08T19:36:02.126Z,96700.48
2018-03-08T19:38:30.406Z,96703.34
2018-03-08T19:40:58.664Z,96710.25
2018-03-08T19:43:26.928Z,96714.39
2018-03-08T19:45:55.206Z,96721.85
2018-03-08T19:48:24.402Z,96727.55
2018-03-08T19:50:53.438Z,96719.65
2018-03-08T19:53:22.486Z,96722.18
2018-03-08T19:55:51.010Z,96718.55
2018-03-08T19:58:19.423Z,96717.52
2018-03-08T20:00:48.616Z,96729.84
2018-03-08T20:03:17.034Z,96731.45
2018-03-08T20:05:46.137Z,96733.54
2018-03-08T20:08:15.275Z,96731.85
2018-03-08T20:10:43.612Z,96733.34
2018-03-08T20:13:12.001Z,96735.55
2018-03-08T20:15:41.538Z,96738.72
2018-03-08T20:18:09.944Z,96739.25
2018-03-08T20:20:38.221Z,96742.70
2018-03-08T20:23:07.282Z,96745.48
2018-03-08T20:25:36.331Z,96747.84
2018-03-08T20:28:04.663Z,96755.34
2018-03-08T20:30:32.971Z,96758.39
2018-03-08T20:33:01.242Z,96762.37
2018-03-08T20:35:29.505Z,96765.65
2018-03-08T20:37:58.568Z,96756.69
2018-03-08T20:40:26.812Z,96764.00
2018-03-08T20:42:55.083Z,96770.46
2018-03-08T20:45:24.873Z,96764.58
2018-03-08T20:47:53.141Z,96768.20
2018-03-08T20:50:22.917Z,96762.92
2018-03-08T20:52:51.173Z,96765.50
2018-03-08T20:55:19.520Z,96759.11
2018-03-08T20:57:47.804Z,96768.44
2018-03-08T21:00:16.119Z,96774.76
2018-03-08T21:02:44.420Z,96778.03
2018-03-08T21:05:13.609Z,96780.88
2018-03-08T21:07:41.929Z,96781.05
2018-03-08T21:10:10.971Z,96778.85
2018-03-08T21:12:40.021Z,96777.41
2018-03-08T21:15:08.340Z,96785.64
2018-03-08T21:17:36.680Z,96787.67
2018-03-08T21:20:05.731Z,96788.06
2018-03-08T21:22:33.996Z,96796.12
2018-03-08T21:25:02.285Z,96789.16
2018-03-08T21:27:30.616Z,96790.73
2018-03-08T21:29:58.882Z,96796.49
2018-03-08T21:32:27.144Z,96801.09
2018-03-08T21:34:55.409Z,96802.47
2018-03-08T21:37:24.439Z,96810.02
2018-03-08T21:39:52.716Z,96809.50
2018-03-08T21:42:22.333Z,96820.14
2018-03-08T21:44:51.951Z,96819.40
2018-03-08T21:47:20.967Z,96832.25
2018-03-08T21:49:50.025Z,96815.53
2018-03-08T21:52:18.302Z,96828.27
2018-03-08T21:54:47.403Z,96824.70
2018-03-08T21:57:15.743Z,96839.61
2018-03-08T21:59:44.801Z,96842.50
2018-03-08T22:02:13.169Z,96843.13
2018-03-08T22:04:41.704Z,96844.91
2018-03-08T22:07:10.771Z,96864.98
2018-03-08T22:09:39.109Z,96889.41
2018-03-08T22:12:07.443Z,96915.20
2018-03-08T22:14:35.642Z,96925.94
2018-03-08T22:17:03.970Z,96924.98
2018-03-08T22:19:32.228Z,96935.56
2018-03-08T22:22:01.283Z,96932.09
2018-03-08T22:24:29.540Z,96944.99
2018-03-08T22:26:57.824Z,96949.61
2018-03-08T22:29:26.072Z,96945.53
2018-03-08T22:31:55.098Z,96959.46
2018-03-08T22:34:23.345Z,96970.29
2018-03-08T22:36:51.612Z,96986.25
2018-03-08T22:39:19.878Z,96981.35
2018-03-08T22:41:48.154Z,97000.83
2018-03-08T22:44:16.459Z,97015.52
2018-03-08T22:46:44.911Z,96996.98
2018-03-08T22:49:14.061Z,97012.32
2018-03-08T22:51:42.413Z,97013.72
2018-03-08T22:54:11.540Z,96998.53
2018-03-08T22:56:40.577Z,97008.16
2018-03-08T22:59:08.847Z,97005.28
2018-03-08T23:04:53.715Z,97028.03
2018-03-08T23:07:21.965Z,97026.37
2018-03-08T23:09:50.233Z,97033.92
2018-03-08T23:12:19.641Z,97038.86
2018-03-08T23:14:48.653Z,97044.25
2018-03-08T23:17:16.993Z,97033.06
2018-03-08T23:19:45.308Z,97046.88
2018-03-08T23:22:13.689Z,97035.22
2018-03-08T23:24:42.067Z,97039.94
2018-03-08T23:27:11.223Z,97048.11
2018-03-08T23:29:39.483Z,97054.33
2018-03-08T23:32:07.805Z,97067.45
2018-03-08T23:34:36.059Z,97068.58
2018-03-08T23:37:04.324Z,97076.44
2018-03-08T23:39:32.701Z,97086.98
2018-03-08T23:42:01.168Z,97076.33
2018-03-08T23:44:29.519Z,97079.23
2018-03-08T23:46:57.791Z,97078.16
2018-03-08T23:49:26.056Z,97062.42
2018-03-08T23:51:55.065Z,97063.47
2018-03-08T23:54:23.359Z,97065.87
2018-03-08T23:59:50.626Z,97080.37
